Time;durP1;ratioP1;P1;durP2;ratioP2;P2;SDS_P1;SDS_P2;PMS_P1;PMS_P2;Temp;Humidity;BMP_temperature;BMP_pressure;BME280_temperature;BME280_humidity;BME280_pressure;Samples;Min_cycle;Max_cycle;Signal;HPM_P1;HPM_P2
2022/10/11 00:01:44;;;;;;;10.63;2.13;;;7.70;99.90;;;;;;4979212;28;20038;-69
2022/10/11 00:04:09;;;;;;;8.60;1.48;;;7.60;99.90;;;;;;4979484;28;20124;-69
2022/10/11 00:06:37;;;;;;;14.95;2.83;;;7.60;99.90;;;;;;4979147;28;20042;-69
2022/10/11 00:09:03;;;;;;;8.30;1.73;;;7.60;99.90;;;;;;4996799;28;20117;-69
2022/10/11 00:11:29;;;;;;;9.40;1.90;;;7.60;99.90;;;;;;4978979;28;20414;-69
2022/10/11 00:13:55;;;;;;;6.10;1.70;;;7.60;99.90;;;;;;4979285;28;20101;-69
2022/10/11 00:16:21;;;;;;;10.10;2.03;;;7.60;99.90;;;;;;4978944;28;20046;-69
2022/10/11 00:18:47;;;;;;;11.85;1.77;;;7.50;99.90;;;;;;4978868;28;20085;-69
2022/10/11 00:21:15;;;;;;;9.25;2.08;;;7.50;99.90;;;;;;4979290;28;20078;-69
2022/10/11 00:23:40;;;;;;;12.30;2.50;;;7.50;99.90;;;;;;4978829;28;20058;-69
2022/10/11 00:26:08;;;;;;;10.30;1.80;;;7.50;99.90;;;;;;4978825;28;20098;-69
2022/10/11 00:28:34;;;;;;;10.30;1.95;;;7.50;99.90;;;;;;4978922;28;20085;-69
2022/10/11 00:31:00;;;;;;;14.35;2.53;;;7.50;99.90;;;;;;4978567;28;20073;-69
2022/10/11 00:33:25;;;;;;;11.52;2.20;;;7.40;99.90;;;;;;4978651;28;20034;-69
2022/10/11 00:35:51;;;;;;;9.90;1.95;;;7.40;99.90;;;;;;4978875;28;20042;-69
2022/10/11 00:38:17;;;;;;;9.82;2.25;;;7.40;99.90;;;;;;4978529;28;20455;-69
2022/10/11 00:40:43;;;;;;;7.90;1.65;;;7.40;99.90;;;;;;4962455;28;20042;-69
2022/10/11 00:43:18;;;;;;;8.32;1.52;;;7.40;99.90;;;;;;4978470;28;20039;-69
2022/10/11 00:45:55;;;;;;;10.38;2.03;;;7.40;99.90;;;;;;4978685;28;20046;-69
2022/10/11 00:48:42;;;;;;;8.85;1.98;;;7.30;99.90;;;;;;4962425;28;20046;-69
2022/10/11 00:51:22;;;;;;;9.00;2.22;;;7.30;99.90;;;;;;4977825;28;20065;-69
2022/10/11 00:53:49;;;;;;;8.27;1.90;;;7.30;99.90;;;;;;4978642;28;20074;-69
2022/10/11 00:56:26;;;;;;;8.63;2.13;;;7.30;99.90;;;;;;4962201;28;20446;-69
2022/10/11 00:58:53;;;;;;;10.68;1.92;;;7.30;99.90;;;;;;4978131;28;20066;-69
2022/10/11 01:01:19;;;;;;;11.27;2.08;;;7.20;99.90;;;;;;4978169;28;20042;-69
2022/10/11 01:03:45;;;;;;;9.05;1.85;;;7.20;99.90;;;;;;4978121;28;20093;-69
2022/10/11 01:06:11;;;;;;;7.47;1.52;;;7.20;99.90;;;;;;4978298;28;20152;-69
2022/10/11 01:08:37;;;;;;;6.85;1.88;;;7.20;99.90;;;;;;4977952;28;20534;-69
2022/10/11 01:11:03;;;;;;;6.05;1.50;;;7.20;99.90;;;;;;4978066;28;20061;-69
2022/10/11 01:14:01;;;;;;;9.43;1.75;;;7.20;99.90;;;;;;4977926;28;20491;-69
2022/10/11 01:16:30;;;;;;;9.93;1.90;;;7.20;99.90;;;;;;4961653;28;20104;-69
2022/10/11 01:19:28;;;;;;;12.50;2.17;;;7.10;99.90;;;;;;4977785;28;20039;-69
2022/10/11 01:22:29;;;;;;;9.18;1.48;;;7.20;99.90;;;;;;4945307;28;20058;-69
2022/10/11 01:25:13;;;;;;;10.68;1.60;;;7.10;99.90;;;;;;4977721;28;20092;-69
2022/10/11 01:28:18;;;;;;;30.27;1.88;;;7.10;99.90;;;;;;4977858;28;20057;-69
2022/10/11 01:30:44;;;;;;;8.13;1.30;;;7.10;99.90;;;;;;4973876;28;20141;-68
2022/10/11 01:33:15;;;;;;;11.10;1.50;;;7.00;99.90;;;;;;4977547;28;20042;-68
2022/10/11 01:35:51;;;;;;;9.23;1.73;;;7.00;99.90;;;;;;4977740;28;20054;-68
2022/10/11 01:38:28;;;;;;;10.60;2.05;;;7.00;99.90;;;;;;4977704;28;20054;-68
2022/10/11 01:41:17;;;;;;;7.15;1.40;;;7.00;99.90;;;;;;4977390;28;20046;-68
2022/10/11 01:43:43;;;;;;;12.95;2.10;;;6.90;99.90;;;;;;4960526;28;20089;-69
2022/10/11 01:46:10;;;;;;;12.27;2.22;;;6.90;99.90;;;;;;4977358;28;20051;-69
2022/10/11 01:48:47;;;;;;;15.02;2.25;;;7.00;99.90;;;;;;4977172;28;20049;-69
2022/10/11 01:51:12;;;;;;;6.88;1.75;;;7.00;99.90;;;;;;4977147;28;20177;-69
2022/10/11 01:53:53;;;;;;;8.65;2.20;;;7.00;99.90;;;;;;4977432;28;20129;-69
2022/10/11 01:56:30;;;;;;;9.98;1.95;;;7.00;99.90;;;;;;4977107;28;20396;-69
2022/10/11 01:59:27;;;;;;;7.10;1.63;;;7.10;99.90;;;;;;4977281;28;20042;-69
2022/10/11 02:02:11;;;;;;;7.95;1.17;;;7.10;99.90;;;;;;4977304;28;20086;-69
2022/10/11 02:05:01;;;;;;;7.72;1.50;;;7.00;99.90;;;;;;4976167;28;20042;-68
2022/10/11 02:07:48;;;;;;;5.72;1.50;;;7.00;99.90;;;;;;4961043;28;20049;-68
2022/10/11 02:10:34;;;;;;;7.68;2.22;;;7.00;99.90;;;;;;4976927;28;20074;-68
2022/10/11 02:13:06;;;;;;;11.00;1.50;;;6.90;99.90;;;;;;4976862;28;20454;-68
2022/10/11 02:15:35;;;;;;;11.82;1.90;;;6.90;99.90;;;;;;4977424;28;20049;-69
2022/10/11 02:18:06;;;;;;;9.00;1.60;;;6.90;99.90;;;;;;4976858;28;20073;-69
2022/10/11 02:20:34;;;;;;;7.60;1.75;;;6.90;99.90;;;;;;4976744;28;20415;-69
2022/10/11 02:23:10;;;;;;;8.88;1.70;;;6.90;99.90;;;;;;4977016;28;20117;-69
2022/10/11 02:25:37;;;;;;;7.40;1.30;;;6.80;99.90;;;;;;4976710;28;20046;-69
2022/10/11 02:28:09;;;;;;;8.98;1.88;;;6.80;99.90;;;;;;4976587;28;20072;-69
2022/10/11 02:30:36;;;;;;;7.77;1.67;;;6.80;99.90;;;;;;4976600;28;20061;-69
2022/10/11 02:33:04;;;;;;;9.00;1.80;;;6.70;99.90;;;;;;4976769;28;20042;-69
2022/10/11 02:35:38;;;;;;;7.50;1.60;;;6.70;99.90;;;;;;4976567;28;20038;-69
2022/10/11 02:38:20;;;;;;;6.35;1.60;;;6.70;99.90;;;;;;4976478;28;20042;-69
2022/10/11 02:40:54;;;;;;;7.38;1.30;;;6.80;99.90;;;;;;4976536;28;20049;-69
2022/10/11 02:43:48;;;;;;;7.15;1.67;;;6.60;99.90;;;;;;4960600;28;20042;-69
2022/10/11 02:46:14;;;;;;;8.93;1.20;;;6.70;99.90;;;;;;4994088;28;20038;-68
2022/10/11 02:48:40;;;;;;;6.35;1.45;;;6.60;99.90;;;;;;4976288;28;20042;-68
2022/10/11 02:51:11;;;;;;;5.65;1.15;;;6.70;99.90;;;;;;4960072;28;20042;-68
2022/10/11 02:53:37;;;;;;;10.95;1.67;;;6.70;99.90;;;;;;4976650;28;20038;-68
2022/10/11 02:56:03;;;;;;;8.88;1.83;;;6.60;99.90;;;;;;4976578;28;20081;-68
2022/10/11 02:58:28;;;;;;;8.90;1.88;;;6.60;99.90;;;;;;4976224;28;20451;-68
2022/10/11 03:00:54;;;;;;;10.82;2.13;;;6.60;99.90;;;;;;4976296;28;20046;-68
2022/10/11 03:03:19;;;;;;;10.32;2.45;;;6.60;99.90;;;;;;4993652;28;20043;-68
2022/10/11 03:05:45;;;;;;;4.30;1.10;;;6.60;99.90;;;;;;4976262;28;20034;-68
2022/10/11 03:08:12;;;;;;;11.32;1.65;;;6.60;99.90;;;;;;4976169;28;20081;-68
2022/10/11 03:10:39;;;;;;;9.20;1.80;;;6.60;99.90;;;;;;4976290;28;20096;-69
2022/10/11 03:13:04;;;;;;;9.40;1.50;;;6.70;99.90;;;;;;4976377;28;20039;-69
2022/10/11 03:15:30;;;;;;;9.95;1.60;;;6.70;99.90;;;;;;4978679;28;20502;-69
2022/10/11 03:17:56;;;;;;;10.48;1.70;;;6.60;99.90;;;;;;4980175;28;20081;-69
2022/10/11 03:20:22;;;;;;;5.95;1.58;;;6.70;99.90;;;;;;4980293;28;20384;-69
2022/10/11 03:22:48;;;;;;;7.00;1.70;;;6.70;99.90;;;;;;4980232;28;20038;-69
2022/10/11 03:25:13;;;;;;;8.98;1.80;;;6.60;99.90;;;;;;4979893;28;20083;-69
2022/10/11 03:27:39;;;;;;;11.15;1.80;;;6.60;99.90;;;;;;4979856;28;20042;-68
2022/10/11 03:30:07;;;;;;;12.57;2.08;;;6.60;99.90;;;;;;4979774;28;20042;-68
2022/10/11 03:32:33;;;;;;;8.07;1.80;;;6.60;99.90;;;;;;4979806;28;20042;-68
2022/10/11 03:34:58;;;;;;;4.05;0.90;;;6.60;99.90;;;;;;4979766;28;20137;-69
2022/10/11 03:37:24;;;;;;;4.80;0.77;;;6.60;99.90;;;;;;4979669;28;20046;-68
2022/10/11 03:39:50;;;;;;;8.07;1.88;;;6.50;99.90;;;;;;4979675;28;20088;-68
2022/10/11 03:42:15;;;;;;;4.35;1.10;;;6.50;99.90;;;;;;4963478;28;20050;-68
2022/10/11 03:44:41;;;;;;;8.05;1.25;;;6.50;99.90;;;;;;4979558;28;20049;-68
2022/10/11 03:47:07;;;;;;;7.15;1.27;;;6.50;99.90;;;;;;4963700;28;20046;-68
2022/10/11 03:49:33;;;;;;;4.93;1.23;;;6.50;99.90;;;;;;4979642;28;20105;-68
2022/10/11 03:51:58;;;;;;;6.28;1.17;;;6.50;99.90;;;;;;4979441;28;20496;-69
2022/10/11 03:54:24;;;;;;;4.85;0.68;;;6.50;99.90;;;;;;4979363;28;20117;-69
2022/10/11 03:56:50;;;;;;;5.50;0.95;;;6.50;99.90;;;;;;4979278;28;20034;-69
2022/10/11 03:59:15;;;;;;;6.15;1.13;;;6.50;99.90;;;;;;4979303;28;20093;-69
2022/10/11 04:01:41;;;;;;;9.82;1.30;;;6.50;99.90;;;;;;4979194;28;20050;-69
2022/10/11 04:04:06;;;;;;;6.38;1.00;;;6.50;99.90;;;;;;4996914;28;20045;-69
2022/10/11 04:06:32;;;;;;;5.25;1.25;;;6.50;99.90;;;;;;4997164;28;20038;-69
2022/10/11 04:08:57;;;;;;;5.15;0.77;;;6.50;99.90;;;;;;4979101;28;20038;-69
2022/10/11 04:11:23;;;;;;;5.45;1.10;;;6.50;99.90;;;;;;4978992;28;20108;-69
2022/10/11 04:13:48;;;;;;;5.25;1.13;;;6.50;99.90;;;;;;4979325;28;20034;-69
2022/10/11 04:16:14;;;;;;;7.40;1.15;;;6.50;99.90;;;;;;4978996;28;20514;-69
2022/10/11 04:18:40;;;;;;;6.50;1.50;;;6.50;99.90;;;;;;4979098;28;20375;-69
2022/10/11 04:21:05;;;;;;;9.15;1.67;;;6.50;99.90;;;;;;4978914;28;20447;-69
2022/10/11 04:23:32;;;;;;;7.75;1.75;;;6.50;99.90;;;;;;4978840;28;20104;-69
2022/10/11 04:25:58;;;;;;;6.82;1.58;;;6.50;99.90;;;;;;4978163;28;20521;-69
2022/10/11 04:28:24;;;;;;;6.55;1.40;;;6.50;99.90;;;;;;4978532;28;20034;-69
2022/10/11 04:30:50;;;;;;;5.97;1.33;;;6.50;99.90;;;;;;4978665;28;20050;-69
2022/10/11 04:33:16;;;;;;;11.73;2.20;;;6.50;99.90;;;;;;4978710;28;20043;-69
2022/10/11 04:35:41;;;;;;;4.38;1.02;;;6.50;99.90;;;;;;4978885;28;20049;-69
2022/10/11 04:38:07;;;;;;;9.00;1.55;;;6.50;99.90;;;;;;4978570;28;20495;-69
2022/10/11 04:40:33;;;;;;;9.73;1.77;;;6.50;99.90;;;;;;4978564;28;20034;-68
2022/10/11 04:42:59;;;;;;;11.35;1.98;;;6.50;99.90;;;;;;4978548;28;20088;-68
2022/10/11 04:45:25;;;;;;;11.52;1.30;;;6.50;99.90;;;;;;4962397;28;20054;-68
2022/10/11 04:47:50;;;;;;;6.50;1.75;;;6.50;99.90;;;;;;4978351;28;20042;-69
2022/10/11 04:50:17;;;;;;;10.50;1.73;;;6.40;99.90;;;;;;4978506;28;20050;-68
2022/10/11 04:52:42;;;;;;;8.70;1.83;;;6.40;99.90;;;;;;4978717;28;20042;-69
2022/10/11 04:55:08;;;;;;;8.25;1.73;;;6.50;99.90;;;;;;4978347;28;20407;-69
2022/10/11 04:57:34;;;;;;;10.65;1.90;;;6.50;99.90;;;;;;4978201;28;20121;-69
2022/10/11 05:00:00;;;;;;;9.43;1.95;;;6.50;99.90;;;;;;4978522;28;20134;-69
2022/10/11 05:02:25;;;;;;;12.48;1.55;;;6.50;99.90;;;;;;4978425;28;20495;-69
2022/10/11 05:04:51;;;;;;;13.88;2.10;;;6.50;99.90;;;;;;4978430;28;20642;-69
2022/10/11 05:07:16;;;;;;;10.88;1.50;;;6.50;99.90;;;;;;4978015;28;20591;-68
2022/10/11 05:09:42;;;;;;;7.93;1.70;;;6.50;99.90;;;;;;4995619;28;20137;-68
2022/10/11 05:12:07;;;;;;;11.23;1.75;;;6.50;99.90;;;;;;4978252;28;20042;-68
2022/10/11 05:14:33;;;;;;;10.63;1.80;;;6.50;99.90;;;;;;4978188;28;20133;-68
2022/10/11 05:16:58;;;;;;;10.80;1.80;;;6.50;99.90;;;;;;4978010;28;20483;-68
2022/10/11 05:19:24;;;;;;;8.82;2.00;;;6.60;99.90;;;;;;4977876;28;20443;-68
2022/10/11 05:21:50;;;;;;;13.98;2.10;;;6.60;99.90;;;;;;4978073;28;20042;-68
2022/10/11 05:24:15;;;;;;;9.55;2.00;;;6.60;99.90;;;;;;4977746;28;20468;-69
2022/10/11 05:26:41;;;;;;;11.90;1.83;;;6.60;99.90;;;;;;4977624;28;20034;-69
2022/10/11 05:29:06;;;;;;;8.98;1.88;;;6.60;99.90;;;;;;4977676;28;20053;-68
2022/10/11 05:31:32;;;;;;;6.28;1.70;;;6.60;99.90;;;;;;4977548;28;20053;-68
2022/10/11 05:33:58;;;;;;;8.80;1.85;;;6.60;99.90;;;;;;4977563;28;20053;-68
2022/10/11 05:36:24;;;;;;;10.10;2.05;;;6.60;99.90;;;;;;4961363;28;20480;-68
2022/10/11 05:38:50;;;;;;;8.65;1.58;;;6.70;99.90;;;;;;4977620;28;20035;-68
2022/10/11 05:41:16;;;;;;;12.85;1.75;;;6.70;99.90;;;;;;4994844;28;20453;-69
2022/10/11 05:43:43;;;;;;;6.82;1.80;;;6.70;99.90;;;;;;4977358;28;20109;-69
2022/10/11 05:46:09;;;;;;;8.40;2.03;;;6.80;99.90;;;;;;4977611;28;20053;-69
2022/10/11 05:48:35;;;;;;;12.05;2.30;;;6.80;99.90;;;;;;4977280;28;20458;-69
2022/10/11 05:51:03;;;;;;;9.98;2.25;;;6.80;99.90;;;;;;4977172;28;20038;-69
2022/10/11 05:53:30;;;;;;;12.50;2.17;;;6.80;99.90;;;;;;4977232;28;20030;-69
2022/10/11 05:55:55;;;;;;;12.15;2.05;;;6.80;99.90;;;;;;4977167;28;20631;-69
2022/10/11 05:58:21;;;;;;;11.18;2.10;;;6.80;99.90;;;;;;4977310;28;20046;-69
2022/10/11 06:00:47;;;;;;;13.43;2.63;;;6.80;99.90;;;;;;4961048;28;20440;-68
2022/10/11 06:03:13;;;;;;;10.65;2.08;;;6.90;99.90;;;;;;4977048;28;20038;-68
2022/10/11 06:05:39;;;;;;;8.15;1.90;;;6.90;99.90;;;;;;4977001;28;20507;-68
2022/10/11 06:08:07;;;;;;;11.55;2.20;;;6.80;99.90;;;;;;4977211;28;20038;-74
2022/10/11 06:10:33;;;;;;;10.43;2.60;;;6.90;99.90;;;;;;4976986;28;20045;-69
2022/10/11 06:12:58;;;;;;;12.02;2.40;;;6.90;99.90;;;;;;4977917;28;20395;-68
2022/10/11 06:15:24;;;;;;;11.90;2.70;;;6.90;99.90;;;;;;4994224;28;20078;-68
2022/10/11 06:17:50;;;;;;;12.45;2.05;;;6.90;99.90;;;;;;4976643;28;20034;-68
2022/10/11 06:20:16;;;;;;;10.75;2.38;;;6.90;99.90;;;;;;4976731;28;20077;-68
2022/10/11 06:22:41;;;;;;;8.23;1.90;;;6.90;99.90;;;;;;4976805;28;20053;-68
2022/10/11 06:25:07;;;;;;;11.52;2.05;;;6.90;99.90;;;;;;4960688;28;20046;-68
2022/10/11 06:27:33;;;;;;;10.43;1.92;;;6.90;99.90;;;;;;4977114;28;20523;-68
2022/10/11 06:29:59;;;;;;;8.77;1.98;;;7.00;99.90;;;;;;4976577;28;20184;-68
2022/10/11 06:32:24;;;;;;;8.65;2.05;;;6.90;99.90;;;;;;4976819;28;20042;-68
2022/10/11 06:34:50;;;;;;;9.80;2.40;;;7.00;99.90;;;;;;4976565;28;20034;-68
2022/10/11 06:37:15;;;;;;;10.93;2.13;;;7.00;99.90;;;;;;4976752;28;20042;-68
2022/10/11 06:39:41;;;;;;;12.77;2.70;;;7.00;99.90;;;;;;4960453;28;20537;-68
2022/10/11 06:42:09;;;;;;;11.48;2.25;;;7.00;99.90;;;;;;4976784;28;20042;-68
2022/10/11 06:44:34;;;;;;;11.93;2.55;;;7.10;99.90;;;;;;4976447;28;20038;-68
2022/10/11 06:47:00;;;;;;;15.20;2.80;;;7.10;99.90;;;;;;4976330;28;20088;-68
2022/10/11 06:49:26;;;;;;;12.40;2.33;;;7.10;99.90;;;;;;4975882;28;20037;-68
2022/10/11 06:51:51;;;;;;;10.20;2.08;;;7.20;99.90;;;;;;4976374;28;20042;-68
2022/10/11 06:54:17;;;;;;;10.32;2.45;;;7.20;99.90;;;;;;4976368;28;20046;-68
2022/10/11 06:56:44;;;;;;;12.00;2.70;;;7.30;99.90;;;;;;4976294;28;20039;-68
2022/10/11 06:59:10;;;;;;;12.82;2.35;;;7.30;99.90;;;;;;4976534;28;20057;-68
2022/10/11 07:01:36;;;;;;;14.88;2.65;;;7.30;99.90;;;;;;4976243;28;20396;-68
2022/10/11 07:04:02;;;;;;;9.40;2.53;;;7.40;99.90;;;;;;4976243;28;20061;-68
2022/10/11 07:06:29;;;;;;;13.95;2.90;;;7.40;99.90;;;;;;4976238;28;20058;-68
2022/10/11 07:08:56;;;;;;;16.50;2.63;;;7.40;99.90;;;;;;4976383;28;20050;-68
2022/10/11 07:11:24;;;;;;;12.18;2.85;;;7.50;99.90;;;;;;4976085;28;20164;-68
2022/10/11 07:13:58;;;;;;;12.15;3.00;;;7.60;99.90;;;;;;4976128;28;20500;-68
2022/10/11 07:16:25;;;;;;;10.85;2.58;;;7.60;99.90;;;;;;4975963;28;20042;-68
2022/10/11 07:18:53;;;;;;;8.75;2.83;;;7.60;99.90;;;;;;4976117;28;20039;-69
2022/10/11 07:21:19;;;;;;;15.77;3.20;;;7.60;99.90;;;;;;4976402;28;20046;-68
2022/10/11 07:23:44;;;;;;;11.75;2.75;;;7.70;99.90;;;;;;4976080;28;20517;-68
2022/10/11 07:26:11;;;;;;;11.80;2.80;;;7.70;99.90;;;;;;4976066;28;20121;-68
2022/10/11 07:28:38;;;;;;;13.68;2.90;;;7.70;99.90;;;;;;4975830;28;20046;-68
2022/10/11 07:31:16;;;;;;;14.27;2.63;;;7.80;99.90;;;;;;4975834;28;20054;-68
2022/10/11 07:33:41;;;;;;;11.40;2.78;;;7.90;99.90;;;;;;4976057;28;20153;-68
2022/10/11 07:36:08;;;;;;;11.38;2.50;;;7.90;99.90;;;;;;4975978;28;20042;-68
2022/10/11 07:38:34;;;;;;;11.70;2.97;;;7.90;99.90;;;;;;4975833;28;20476;-68
2022/10/11 07:41:04;;;;;;;14.07;3.38;;;8.00;99.90;;;;;;4976175;28;20125;-68
2022/10/11 07:43:30;;;;;;;10.13;2.70;;;8.00;99.90;;;;;;4959818;28;20042;-68
2022/10/11 07:45:55;;;;;;;10.90;3.00;;;8.10;99.90;;;;;;4993282;28;20403;-68
2022/10/11 07:48:21;;;;;;;14.70;3.05;;;8.10;99.90;;;;;;4976065;28;20380;-68
2022/10/11 07:50:47;;;;;;;13.32;2.70;;;8.10;99.90;;;;;;4975764;28;20407;-68
2022/10/11 07:53:13;;;;;;;11.32;2.80;;;8.20;99.90;;;;;;4976063;28;20093;-68
2022/10/11 07:55:39;;;;;;;14.02;2.97;;;8.30;99.90;;;;;;4976087;28;20527;-68
2022/10/11 07:58:09;;;;;;;12.02;2.80;;;8.40;99.90;;;;;;4975671;28;20487;-68
2022/10/11 08:00:35;;;;;;;14.82;3.25;;;8.50;99.90;;;;;;4975729;28;20151;-68
2022/10/11 08:03:02;;;;;;;16.30;3.08;;;8.50;99.90;;;;;;4978499;28;20121;-68
2022/10/11 08:05:28;;;;;;;10.30;2.65;;;8.60;99.90;;;;;;4979196;28;20499;-68
2022/10/11 08:07:54;;;;;;;14.93;2.95;;;8.80;99.90;;;;;;4996571;28;20038;-68
2022/10/11 08:10:19;;;;;;;13.35;3.13;;;8.80;99.90;;;;;;4979072;28;20046;-68
2022/10/11 08:12:48;;;;;;;11.38;2.67;;;8.90;99.90;;;;;;4979400;28;20119;-68
2022/10/11 08:15:14;;;;;;;13.48;3.17;;;9.10;99.90;;;;;;4996630;28;20030;-68
2022/10/11 08:17:39;;;;;;;17.83;3.47;;;9.20;99.90;;;;;;4978766;28;20108;-68
2022/10/11 08:20:05;;;;;;;16.80;3.42;;;9.30;99.90;;;;;;4978939;28;20046;-68
2022/10/11 08:22:31;;;;;;;12.20;3.35;;;9.60;99.90;;;;;;4978843;28;20062;-69
2022/10/11 08:24:56;;;;;;;12.85;3.30;;;10.50;99.90;;;;;;4979141;28;20038;-69
2022/10/11 08:27:22;;;;;;;14.15;3.28;;;11.90;99.90;;;;;;4978767;28;20105;-69
2022/10/11 08:29:47;;;;;;;14.25;2.97;;;13.40;99.90;;;;;;4978753;28;20042;-69
2022/10/11 08:32:13;;;;;;;11.35;2.45;;;14.70;99.90;;;;;;4978762;28;20121;-69
2022/10/11 08:34:38;;;;;;;12.55;2.88;;;15.80;99.90;;;;;;4978960;28;20049;-69
2022/10/11 08:37:04;;;;;;;15.00;3.05;;;16.70;99.90;;;;;;4978639;28;20038;-69
2022/10/11 08:39:30;;;;;;;12.93;2.80;;;17.50;99.90;;;;;;4978665;28;20038;-69
2022/10/11 08:42:09;;;;;;;15.15;3.00;;;18.10;99.90;;;;;;4978581;28;20055;-69
2022/10/11 08:44:52;;;;;;;12.43;2.58;;;18.70;99.90;;;;;;4996566;28;20085;-69
2022/10/11 08:47:27;;;;;;;8.75;2.85;;;19.40;99.90;;;;;;4995965;28;20109;-69
2022/10/11 08:49:54;;;;;;;13.00;2.88;;;19.90;97.00;;;;;;4962266;28;20051;-69
2022/10/11 08:52:22;;;;;;;8.35;2.10;;;20.30;94.10;;;;;;4978602;28;20491;-69
2022/10/11 08:54:53;;;;;;;12.25;2.55;;;20.70;91.70;;;;;;4978580;28;20073;-69
2022/10/11 08:57:21;;;;;;;14.52;2.72;;;20.80;88.10;;;;;;4978316;28;20110;-70
2022/10/11 08:59:54;;;;;;;14.23;2.80;;;21.10;85.10;;;;;;4978237;28;20434;-69
2022/10/11 09:02:46;;;;;;;11.13;2.47;;;21.20;79.70;;;;;;4978760;28;20038;-69
2022/10/11 09:05:16;;;;;;;11.90;2.40;;;21.20;73.50;;;;;;4978208;28;20039;-69
2022/10/11 09:08:10;;;;;;;12.82;2.40;;;21.40;79.40;;;;;;4978420;28;20042;-69
2022/10/11 09:11:06;;;;;;;12.00;2.60;;;21.60;76.80;;;;;;4977927;28;20043;-69
2022/10/11 09:14:05;;;;;;;10.80;2.80;;;22.00;76.30;;;;;;4961759;28;20483;-69
2022/10/11 09:16:41;;;;;;;10.18;2.53;;;22.20;67.90;;;;;;4977901;28;20046;-69
2022/10/11 09:19:18;;;;;;;13.75;2.88;;;22.60;71.00;;;;;;4978110;28;20602;-69
2022/10/11 09:21:59;;;;;;;12.75;2.58;;;22.80;69.60;;;;;;4962007;28;20038;-69
2022/10/11 09:24:56;;;;;;;16.48;2.90;;;23.00;68.30;;;;;;4995736;28;20121;-69
2022/10/11 09:27:35;;;;;;;12.23;2.53;;;23.00;65.00;;;;;;4963115;28;20050;-69
2022/10/11 09:30:13;;;;;;;11.80;2.72;;;23.00;65.60;;;;;;4977661;28;20038;-70
2022/10/11 09:32:45;;;;;;;15.43;2.72;;;22.90;65.00;;;;;;4977936;28;20388;-70
2022/10/11 09:35:14;;;;;;;9.82;2.58;;;22.80;65.10;;;;;;4977841;28;20439;-69
2022/10/11 09:37:42;;;;;;;11.27;2.33;;;22.80;65.00;;;;;;4977456;28;20409;-69
2022/10/11 09:40:17;;;;;;;13.05;2.83;;;22.50;65.50;;;;;;4977463;28;20686;-69
2022/10/11 09:42:43;;;;;;;12.40;2.83;;;22.00;65.90;;;;;;4978534;28;20061;-69
2022/10/11 09:45:18;;;;;;;13.57;2.80;;;22.20;66.80;;;;;;4977640;28;20396;-70
2022/10/11 09:47:44;;;;;;;10.25;2.67;;;22.60;65.30;;;;;;4977311;28;20487;-70
2022/10/11 09:50:14;;;;;;;11.55;2.58;;;22.90;64.80;;;;;;4977200;28;20073;-70
2022/10/11 09:53:02;;;;;;;11.80;2.83;;;23.00;63.90;;;;;;4977064;28;20519;-70
2022/10/11 09:55:42;;;;;;;13.02;2.60;;;23.40;64.40;;;;;;4977526;28;20073;-70
2022/10/11 09:58:34;;;;;;;12.80;2.58;;;23.90;62.30;;;;;;4977122;28;20077;-69
2022/10/11 10:01:09;;;;;;;10.25;2.40;;;24.40;60.60;;;;;;4977330;28;20072;-70
2022/10/11 10:03:40;;;;;;;12.05;2.65;;;24.30;59.60;;;;;;4977079;28;20042;-70
2022/10/11 10:06:14;;;;;;;13.00;2.65;;;23.90;61.40;;;;;;4977034;28;20057;-70
2022/10/11 10:08:41;;;;;;;10.02;2.53;;;23.50;61.30;;;;;;4977150;28;20086;-70
2022/10/11 10:11:09;;;;;;;11.10;3.03;;;23.60;61.30;;;;;;4976892;28;20547;-69
2022/10/11 10:13:50;;;;;;;12.95;2.47;;;24.00;60.50;;;;;;4977903;28;20042;-69
2022/10/11 10:16:23;;;;;;;12.23;2.92;;;24.30;58.70;;;;;;4994244;28;20042;-69
2022/10/11 10:18:58;;;;;;;9.48;2.50;;;24.60;58.90;;;;;;4976985;28;20050;-70
2022/10/11 10:21:34;;;;;;;13.73;3.22;;;24.80;58.00;;;;;;4977040;28;20042;-69
2022/10/11 10:24:03;;;;;;;12.60;2.65;;;24.70;57.80;;;;;;4976207;28;20057;-69
2022/10/11 10:26:30;;;;;;;12.55;2.20;;;24.50;56.70;;;;;;4976877;28;20038;-69
2022/10/11 10:29:08;;;;;;;11.45;2.63;;;24.50;56.70;;;;;;4976575;28;20391;-72
2022/10/11 10:31:51;;;;;;;14.68;3.03;;;24.40;57.80;;;;;;4960548;28;20046;-69
2022/10/11 10:34:32;;;;;;;12.65;2.72;;;24.70;57.90;;;;;;4976589;28;20117;-69
2022/10/11 10:37:05;;;;;;;12.20;2.88;;;25.10;58.20;;;;;;4976580;28;20088;-69
2022/10/11 10:39:53;;;;;;;12.30;2.70;;;25.60;56.70;;;;;;4976613;28;20376;-69
2022/10/11 10:42:19;;;;;;;10.75;2.65;;;25.90;55.20;;;;;;4976548;28;20042;-69
2022/10/11 10:44:57;;;;;;;14.30;2.47;;;26.20;54.30;;;;;;4976452;28;20074;-69
2022/10/11 10:48:03;;;;;;;11.00;2.53;;;26.30;53.50;;;;;;4976399;28;20045;-69
2022/10/11 10:50:36;;;;;;;14.07;2.90;;;26.00;54.20;;;;;;4976461;28;20466;-69
2022/10/11 10:53:27;;;;;;;10.82;2.67;;;25.90;54.20;;;;;;4976678;28;20046;-69
2022/10/11 10:56:14;;;;;;;10.80;2.58;;;26.00;55.50;;;;;;4976352;28;20038;-69
2022/10/11 10:59:10;;;;;;;12.68;2.58;;;26.00;54.90;;;;;;4976297;28;20046;-69
2022/10/11 11:01:52;;;;;;;9.90;2.28;;;25.70;55.70;;;;;;4976535;28;20054;-69
2022/10/11 11:04:24;;;;;;;9.60;2.15;;;25.40;53.50;;;;;;4976294;28;20072;-69
2022/10/11 11:06:52;;;;;;;10.20;2.55;;;25.30;54.20;;;;;;4976496;28;20042;-69
2022/10/11 11:09:39;;;;;;;13.35;3.42;;;25.00;55.40;;;;;;4976193;28;20046;-69
2022/10/11 11:12:23;;;;;;;12.90;2.50;;;24.80;56.10;;;;;;4976176;28;20043;-69
2022/10/11 11:14:58;;;;;;;12.48;3.35;;;24.80;56.80;;;;;;4976068;28;20455;-69
2022/10/11 11:17:36;;;;;;;8.40;2.15;;;24.90;57.50;;;;;;4975997;28;20042;-69
2022/10/11 11:20:43;;;;;;;13.13;2.97;;;24.80;54.90;;;;;;4976400;28;20121;-69
2022/10/11 11:23:43;;;;;;;11.05;2.38;;;24.70;55.30;;;;;;4899001;29;20430;-70
2022/10/11 11:26:19;;;;;;;11.13;3.03;;;24.60;54.00;;;;;;4869614;29;20534;-69
2022/10/11 11:29:05;;;;;;;13.00;2.90;;;24.50;56.60;;;;;;4898779;29;20048;-69
2022/10/11 11:31:58;;;;;;;13.07;2.85;;;24.40;56.50;;;;;;4898796;29;20084;-69
2022/10/11 11:34:29;;;;;;;;;;;24.40;57.10;;;;;;4899150;29;20446;-69
2022/10/11 11:37:00;;;;;;;12.90;2.38;;;24.30;57.30;;;;;;4901428;29;19919;-71
2022/10/11 11:39:36;;;;;;;8.65;2.20;;;24.10;57.70;;;;;;4902511;29;20553;-71
2022/10/11 11:42:12;;;;;;;8.88;2.10;;;24.10;56.40;;;;;;4902636;29;20076;-71
2022/10/11 11:44:43;;;;;;;9.63;2.60;;;24.10;57.70;;;;;;4902585;29;20383;-71
2022/10/11 11:47:24;;;;;;;13.38;2.50;;;23.80;58.40;;;;;;4917995;29;20067;-71
2022/10/11 11:50:22;;;;;;;10.55;2.10;;;23.30;59.00;;;;;;4902163;29;20036;-71
2022/10/11 11:52:59;;;;;;;13.10;2.13;;;22.70;59.90;;;;;;4918179;29;20067;-69
2022/10/11 11:55:32;;;;;;;13.80;2.35;;;22.10;63.30;;;;;;4902294;29;20076;-69
2022/10/11 11:58:26;;;;;;;10.88;2.28;;;21.60;64.80;;;;;;4936598;28;20057;-69
2022/10/11 12:00:58;;;;;;;9.23;2.22;;;21.00;64.00;;;;;;4979428;28;20050;-69
2022/10/11 12:03:29;;;;;;;13.27;2.55;;;20.50;67.40;;;;;;4979239;28;20042;-69
2022/10/11 12:06:13;;;;;;;11.30;2.20;;;20.10;68.20;;;;;;4979322;28;20101;-69
2022/10/11 12:08:42;;;;;;;10.18;2.10;;;19.80;71.40;;;;;;4979119;28;20043;-73
2022/10/11 12:11:24;;;;;;;12.18;2.30;;;19.50;75.80;;;;;;4979229;28;20046;-71
2022/10/11 12:13:51;;;;;;;16.90;2.90;;;19.30;77.50;;;;;;4979148;28;20503;-70
2022/10/11 12:16:17;;;;;;;10.95;2.15;;;19.20;81.20;;;;;;4979054;28;20069;-70
2022/10/11 12:18:51;;;;;;;9.40;2.55;;;19.00;82.40;;;;;;4978886;28;20541;-69
2022/10/11 12:21:29;;;;;;;11.18;2.17;;;18.80;84.20;;;;;;4978925;28;20442;-70
2022/10/11 12:24:11;;;;;;;11.18;2.40;;;18.70;89.40;;;;;;4979211;28;20049;-70
2022/10/11 12:26:43;;;;;;;10.85;2.40;;;18.50;89.20;;;;;;4979270;28;20125;-69
2022/10/11 12:29:46;;;;;;;10.87;2.27;;;18.20;92.30;;;;;;4996599;28;20050;-70
2022/10/11 12:32:27;;;;;;;9.95;2.03;;;18.00;93.40;;;;;;4901424;29;20300;-70
2022/10/11 12:35:31;;;;;;;10.35;2.05;;;17.80;92.60;;;;;;4901649;29;20078;-70
2022/10/11 12:38:23;;;;;;;9.65;2.67;;;17.70;94.20;;;;;;4901179;29;20130;-73
2022/10/11 12:40:55;;;;;;;11.10;2.47;;;17.60;96.40;;;;;;4901520;29;20056;-70
2022/10/11 12:43:30;;;;;;;9.05;2.15;;;18.00;97.60;;;;;;4885678;29;20729;-69
2022/10/11 12:45:55;;;;;;;10.60;2.10;;;18.70;89.40;;;;;;4901486;29;20078;-69
2022/10/11 12:48:47;;;;;;;8.98;2.08;;;19.40;88.70;;;;;;4900430;29;20498;-69
2022/10/11 12:51:39;;;;;;;9.85;2.20;;;20.10;77.90;;;;;;4901137;29;20060;-69
2022/10/11 12:54:17;;;;;;;15.02;2.58;;;20.50;76.10;;;;;;4879704;29;20569;-69
2022/10/11 12:57:17;;;;;;;12.52;2.75;;;20.90;70.80;;;;;;4885634;29;20096;-69
2022/10/11 12:59:44;;;;;;;14.45;2.38;;;21.20;71.80;;;;;;4901028;29;20135;-69
2022/10/11 13:02:35;;;;;;;9.48;2.45;;;21.30;68.20;;;;;;4900962;29;20055;-69
2022/10/11 13:05:22;;;;;;;10.52;2.30;;;21.50;66.50;;;;;;4903334;28;20036;-69
2022/10/11 13:07:48;;;;;;;10.65;2.60;;;21.70;65.80;;;;;;4978051;28;20148;-72
2022/10/11 13:10:18;;;;;;;15.05;2.22;;;21.80;65.00;;;;;;4978223;28;20458;-70
2022/10/11 13:12:46;;;;;;;7.80;1.88;;;21.80;63.90;;;;;;4977970;28;20042;-70